sensor_id;sensor_type;location;lat;lon;timestamp;pressure;altitude;pressure_sealevel;temperature;humidity
70027;BME280;57506;50.092;15.804;2023-06-10T00:02:21;98833.25;;;15.04;100.00
70027;BME280;57506;50.092;15.804;2023-06-10T00:04:47;98831.50;;;15.22;100.00
70027;BME280;57506;50.092;15.804;2023-06-10T00:07:12;98843.00;;;15.35;100.00
70027;BME280;57506;50.092;15.804;2023-06-10T00:09:38;98840.19;;;15.42;100.00
70027;BME280;57506;50.092;15.804;2023-06-10T00:12:05;98842.63;;;15.44;100.00
70027;BME280;57506;50.092;15.804;2023-06-10T00:14:32;98841.13;;;15.48;100.00
70027;BME280;57506;50.092;15.804;2023-06-10T00:16:57;98844.66;;;15.48;100.00
70027;BME280;57506;50.092;15.804;2023-06-10T00:19:23;98851.16;;;15.47;100.00
70027;BME280;57506;50.092;15.804;2023-06-10T00:21:56;98851.97;;;15.48;100.00
70027;BME280;57506;50.092;15.804;2023-06-10T00:24:22;98862.00;;;15.47;100.00
70027;BME280;57506;50.092;15.804;2023-06-10T00:26:48;98859.75;;;15.44;100.00
70027;BME280;57506;50.092;15.804;2023-06-10T00:29:13;98870.16;;;15.47;100.00
70027;BME280;57506;50.092;15.804;2023-06-10T00:31:40;98863.53;;;15.43;100.00
70027;BME280;57506;50.092;15.804;2023-06-10T00:34:08;98857.88;;;15.45;100.00
70027;BME280;57506;50.092;15.804;2023-06-10T00:36:33;98863.06;;;15.46;100.00
70027;BME280;57506;50.092;15.804;2023-06-10T00:39:00;98859.28;;;15.47;100.00
70027;BME280;57506;50.092;15.804;2023-06-10T00:41:26;98862.63;;;15.49;100.00
70027;BME280;57506;50.092;15.804;2023-06-10T00:43:52;98864.28;;;15.50;100.00
70027;BME280;57506;50.092;15.804;2023-06-10T00:46:18;98862.38;;;15.51;100.00
70027;BME280;57506;50.092;15.804;2023-06-10T00:48:45;98857.78;;;15.51;100.00
70027;BME280;57506;50.092;15.804;2023-06-10T00:51:12;98861.31;;;15.52;100.00
70027;BME280;57506;50.092;15.804;2023-06-10T00:53:41;98859.28;;;15.47;100.00
70027;BME280;57506;50.092;15.804;2023-06-10T00:56:07;98858.47;;;15.47;100.00
70027;BME280;57506;50.092;15.804;2023-06-10T00:58:33;98846.41;;;15.43;100.00
70027;BME280;57506;50.092;15.804;2023-06-10T01:00:59;98852.66;;;15.43;100.00
70027;BME280;57506;50.092;15.804;2023-06-10T01:03:25;98853.50;;;15.44;100.00
70027;BME280;57506;50.092;15.804;2023-06-10T01:05:58;98849.97;;;15.43;100.00
70027;BME280;57506;50.092;15.804;2023-06-10T01:08:43;98848.06;;;15.44;100.00
70027;BME280;57506;50.092;15.804;2023-06-10T01:11:19;98850.31;;;15.47;100.00
70027;BME280;57506;50.092;15.804;2023-06-10T01:13:45;98859.28;;;15.47;100.00
70027;BME280;57506;50.092;15.804;2023-06-10T01:16:11;98855.44;;;15.55;100.00
70027;BME280;57506;50.092;15.804;2023-06-10T01:18:40;98850.41;;;15.58;100.00
70027;BME280;57506;50.092;15.804;2023-06-10T01:21:05;98857.44;;;15.59;100.00
70027;BME280;57506;50.092;15.804;2023-06-10T01:23:32;98868.44;;;15.64;100.00
70027;BME280;57506;50.092;15.804;2023-06-10T01:26:06;98862.06;;;15.59;100.00
70027;BME280;57506;50.092;15.804;2023-06-10T01:28:54;98870.81;;;15.61;100.00
70027;BME280;57506;50.092;15.804;2023-06-10T01:32:01;98867.84;;;15.62;100.00
70027;BME280;57506;50.092;15.804;2023-06-10T01:34:31;98876.13;;;15.67;100.00
70027;BME280;57506;50.092;15.804;2023-06-10T01:36:58;98877.06;;;15.61;100.00
70027;BME280;57506;50.092;15.804;2023-06-10T01:39:24;98865.38;;;15.61;100.00
70027;BME280;57506;50.092;15.804;2023-06-10T01:41:52;98870.34;;;15.64;100.00
70027;BME280;57506;50.092;15.804;2023-06-10T01:44:21;98872.91;;;15.59;100.00
70027;BME280;57506;50.092;15.804;2023-06-10T01:46:47;98885.31;;;15.55;100.00
70027;BME280;57506;50.092;15.804;2023-06-10T01:49:13;98875.13;;;15.50;100.00
70027;BME280;57506;50.092;15.804;2023-06-10T01:51:39;98876.06;;;15.44;100.00
70027;BME280;57506;50.092;15.804;2023-06-10T01:54:05;98878.06;;;15.37;100.00
70027;BME280;57506;50.092;15.804;2023-06-10T01:56:31;98883.94;;;15.34;100.00
70027;BME280;57506;50.092;15.804;2023-06-10T01:58:57;98884.88;;;15.28;100.00
70027;BME280;57506;50.092;15.804;2023-06-10T02:01:28;98885.91;;;15.27;100.00
70027;BME280;57506;50.092;15.804;2023-06-10T02:03:53;98888.53;;;15.22;100.00
70027;BME280;57506;50.092;15.804;2023-06-10T02:06:19;98882.34;;;15.15;100.00
70027;BME280;57506;50.092;15.804;2023-06-10T02:08:45;98884.00;;;15.16;100.00
70027;BME280;57506;50.092;15.804;2023-06-10T02:11:10;98890.38;;;15.10;100.00
70027;BME280;57506;50.092;15.804;2023-06-10T02:13:36;98885.25;;;15.01;100.00
70027;BME280;57506;50.092;15.804;2023-06-10T02:16:01;98894.69;;;14.99;100.00
70027;BME280;57506;50.092;15.804;2023-06-10T02:18:27;98892.66;;;14.94;100.00
70027;BME280;57506;50.092;15.804;2023-06-10T02:20:53;98893.56;;;14.88;100.00
70027;BME280;57506;50.092;15.804;2023-06-10T02:23:19;98895.22;;;14.89;100.00
70027;BME280;57506;50.092;15.804;2023-06-10T02:25:45;98904.22;;;14.90;100.00
70027;BME280;57506;50.092;15.804;2023-06-10T02:28:13;98897.72;;;14.91;100.00
70027;BME280;57506;50.092;15.804;2023-06-10T02:30:40;98893.84;;;14.98;100.00
70027;BME280;57506;50.092;15.804;2023-06-10T02:33:06;98887.97;;;15.01;100.00
70027;BME280;57506;50.092;15.804;2023-06-10T02:35:36;98884.88;;;14.98;100.00
70027;BME280;57506;50.092;15.804;2023-06-10T02:38:02;98893.63;;;15.00;100.00
70027;BME280;57506;50.092;15.804;2023-06-10T02:40:28;98891.38;;;14.97;100.00
70027;BME280;57506;50.092;15.804;2023-06-10T02:42:53;98895.97;;;14.96;100.00
70027;BME280;57506;50.092;15.804;2023-06-10T02:45:19;98899.50;;;14.97;100.00
70027;BME280;57506;50.092;15.804;2023-06-10T02:47:44;98895.72;;;14.98;100.00
70027;BME280;57506;50.092;15.804;2023-06-10T02:50:10;98894.06;;;14.97;100.00
70027;BME280;57506;50.092;15.804;2023-06-10T02:52:35;98895.06;;;15.02;100.00
70027;BME280;57506;50.092;15.804;2023-06-10T02:55:01;98893.41;;;15.01;100.00
70027;BME280;57506;50.092;15.804;2023-06-10T02:57:26;98901.31;;;15.03;100.00
70027;BME280;57506;50.092;15.804;2023-06-10T02:59:52;98897.53;;;15.04;100.00
70027;BME280;57506;50.092;15.804;2023-06-10T03:02:19;98897.09;;;15.07;100.00
70027;BME280;57506;50.092;15.804;2023-06-10T03:04:45;98894.16;;;15.09;100.00
70027;BME280;57506;50.092;15.804;2023-06-10T03:07:10;98899.91;;;15.12;100.00
70027;BME280;57506;50.092;15.804;2023-06-10T03:09:36;98902.78;;;15.17;100.00
70027;BME280;57506;50.092;15.804;2023-06-10T03:12:02;98901.38;;;15.26;100.00
70027;BME280;57506;50.092;15.804;2023-06-10T03:14:33;98901.91;;;15.35;100.00
70027;BME280;57506;50.092;15.804;2023-06-10T03:16:59;98900.97;;;15.41;100.00
70027;BME280;57506;50.092;15.804;2023-06-10T03:19:25;98898.97;;;15.48;100.00
70027;BME280;57506;50.092;15.804;2023-06-10T03:22:16;98902.06;;;15.52;100.00
70027;BME280;57506;50.092;15.804;2023-06-10T03:24:41;98907.25;;;15.53;100.00
70027;BME280;57506;50.092;15.804;2023-06-10T03:27:11;98897.13;;;15.60;100.00
70027;BME280;57506;50.092;15.804;2023-06-10T03:29:37;98897.72;;;15.62;100.00
70027;BME280;57506;50.092;15.804;2023-06-10T03:32:03;98905.78;;;15.69;100.00
70027;BME280;57506;50.092;15.804;2023-06-10T03:34:29;98915.38;;;15.71;100.00
70027;BME280;57506;50.092;15.804;2023-06-10T03:36:55;98914.41;;;15.78;100.00
70027;BME280;57506;50.092;15.804;2023-06-10T03:39:21;98915.16;;;15.85;100.00
70027;BME280;57506;50.092;15.804;2023-06-10T03:41:48;98897.91;;;15.91;100.00
70027;BME280;57506;50.092;15.804;2023-06-10T03:44:13;98913.50;;;15.95;100.00
70027;BME280;57506;50.092;15.804;2023-06-10T03:46:39;98906.53;;;15.99;100.00
70027;BME280;57506;50.092;15.804;2023-06-10T03:49:05;98910.22;;;16.05;100.00
70027;BME280;57506;50.092;15.804;2023-06-10T03:51:30;98911.13;;;16.10;100.00
70027;BME280;57506;50.092;15.804;2023-06-10T03:53:56;98910.44;;;16.15;100.00
70027;BME280;57506;50.092;15.804;2023-06-10T03:56:21;98913.03;;;16.22;100.00
70027;BME280;57506;50.092;15.804;2023-06-10T03:58:47;98912.31;;;16.26;100.00
70027;BME280;57506;50.092;15.804;2023-06-10T04:01:12;98913.03;;;16.33;100.00
70027;BME280;57506;50.092;15.804;2023-06-10T04:03:43;98919.66;;;16.37;100.00
70027;BME280;57506;50.092;15.804;2023-06-10T04:06:09;98930.03;;;16.40;100.00
70027;BME280;57506;50.092;15.804;2023-06-10T04:08:34;98927.19;;;16.47;100.00
70027;BME280;57506;50.092;15.804;2023-06-10T04:11:01;98925.78;;;16.44;100.00
70027;BME280;57506;50.092;15.804;2023-06-10T04:13:27;98927.91;;;16.42;100.00
70027;BME280;57506;50.092;15.804;2023-06-10T04:15:53;98934.16;;;16.43;100.00
70027;BME280;57506;50.092;15.804;2023-06-10T04:18:20;98929.56;;;16.43;100.00
70027;BME280;57506;50.092;15.804;2023-06-10T04:20:46;98926.50;;;16.52;100.00
70027;BME280;57506;50.092;15.804;2023-06-10T04:23:12;98931.47;;;16.55;100.00
70027;BME280;57506;50.092;15.804;2023-06-10T04:25:38;98934.75;;;16.57;100.00
70027;BME280;57506;50.092;15.804;2023-06-10T04:28:04;98937.00;;;16.60;100.00
70027;BME280;57506;50.092;15.804;2023-06-10T04:30:29;98924.44;;;16.59;100.00
70027;BME280;57506;50.092;15.804;2023-06-10T04:32:57;98931.22;;;16.68;100.00
70027;BME280;57506;50.092;15.804;2023-06-10T04:35:22;98932.41;;;16.72;100.00
70027;BME280;57506;50.092;15.804;2023-06-10T04:37:48;98932.41;;;16.72;100.00
70027;BME280;57506;50.092;15.804;2023-06-10T04:40:14;98926.38;;;16.70;100.00
70027;BME280;57506;50.092;15.804;2023-06-10T04:42:41;98939.75;;;16.71;100.00
70027;BME280;57506;50.092;15.804;2023-06-10T04:45:07;98933.78;;;16.74;100.00
70027;BME280;57506;50.092;15.804;2023-06-10T04:47:33;98932.84;;;16.81;100.00
70027;BME280;57506;50.092;15.804;2023-06-10T04:50:00;98940.53;;;16.84;100.00
70027;BME280;57506;50.092;15.804;2023-06-10T04:52:26;98944.69;;;16.86;100.00
70027;BME280;57506;50.092;15.804;2023-06-10T04:54:52;98941.72;;;16.88;100.00
70027;BME280;57506;50.092;15.804;2023-06-10T04:57:18;98939.25;;;16.86;100.00
70027;BME280;57506;50.092;15.804;2023-06-10T04:59:45;98936.28;;;16.88;100.00
70027;BME280;57506;50.092;15.804;2023-06-10T05:02:10;98939.56;;;16.90;100.00
70027;BME280;57506;50.092;15.804;2023-06-10T05:04:36;98932.56;;;16.94;100.00
70027;BME280;57506;50.092;15.804;2023-06-10T05:07:02;98934.72;;;16.92;100.00
70027;BME280;57506;50.092;15.804;2023-06-10T05:09:27;98937.44;;;16.92;100.00
70027;BME280;57506;50.092;15.804;2023-06-10T05:11:53;98936.59;;;16.91;100.00
70027;BME280;57506;50.092;15.804;2023-06-10T05:14:19;98935.53;;;16.92;100.00
70027;BME280;57506;50.092;15.804;2023-06-10T05:16:46;98934.00;;;16.96;100.00
70027;BME280;57506;50.092;15.804;2023-06-10T05:19:12;98940.50;;;16.95;100.00
70027;BME280;57506;50.092;15.804;2023-06-10T05:21:37;98944.53;;;16.93;100.00
70027;BME280;57506;50.092;15.804;2023-06-10T05:24:03;98940.06;;;16.87;100.00
70027;BME280;57506;50.092;15.804;2023-06-10T05:26:29;98940.38;;;16.90;100.00
70027;BME280;57506;50.092;15.804;2023-06-10T05:28:57;98944.28;;;16.94;100.00
70027;BME280;57506;50.092;15.804;2023-06-10T05:31:22;98946.06;;;17.00;100.00
70027;BME280;57506;50.092;15.804;2023-06-10T05:33:48;98948.97;;;17.10;100.00
70027;BME280;57506;50.092;15.804;2023-06-10T05:36:13;98955.34;;;17.16;100.00
70027;BME280;57506;50.092;15.804;2023-06-10T05:38:39;98952.88;;;17.14;100.00
70027;BME280;57506;50.092;15.804;2023-06-10T05:41:04;98958.16;;;17.21;100.00
70027;BME280;57506;50.092;15.804;2023-06-10T05:43:30;98960.16;;;17.26;100.00
70027;BME280;57506;50.092;15.804;2023-06-10T05:45:56;98963.66;;;17.38;100.00
70027;BME280;57506;50.092;15.804;2023-06-10T05:48:21;98959.25;;;17.48;100.00
70027;BME280;57506;50.092;15.804;2023-06-10T05:50:47;98959.09;;;17.55;100.00
70027;BME280;57506;50.092;15.804;2023-06-10T05:53:16;98976.75;;;17.64;100.00
70027;BME280;57506;50.092;15.804;2023-06-10T05:55:45;98971.22;;;17.76;100.00
70027;BME280;57506;50.092;15.804;2023-06-10T05:58:11;98973.38;;;17.91;100.00
70027;BME280;57506;50.092;15.804;2023-06-10T06:00:39;98974.22;;;17.91;100.00
70027;BME280;57506;50.092;15.804;2023-06-10T06:03:07;98976.19;;;17.96;100.00
70027;BME280;57506;50.092;15.804;2023-06-10T06:05:33;98976.03;;;18.02;100.00
70027;BME280;57506;50.092;15.804;2023-06-10T06:08:04;98980.16;;;18.05;100.00
70027;BME280;57506;50.092;15.804;2023-06-10T06:10:30;98986.28;;;18.12;100.00
70027;BME280;57506;50.092;15.804;2023-06-10T06:12:55;98979.84;;;18.18;100.00
70027;BME280;57506;50.092;15.804;2023-06-10T06:15:21;98985.03;;;18.19;100.00
70027;BME280;57506;50.092;15.804;2023-06-10T06:17:46;98969.50;;;18.20;100.00
70027;BME280;57506;50.092;15.804;2023-06-10T06:20:12;98963.66;;;18.11;100.00
70027;BME280;57506;50.092;15.804;2023-06-10T06:22:38;98978.94;;;18.12;100.00
70027;BME280;57506;50.092;15.804;2023-06-10T06:25:03;98982.50;;;18.13;100.00
70027;BME280;57506;50.092;15.804;2023-06-10T06:27:29;98974.56;;;18.11;100.00
70027;BME280;57506;50.092;15.804;2023-06-10T06:29:54;98969.94;;;18.29;100.00
70027;BME280;57506;50.092;15.804;2023-06-10T06:32:26;98964.84;;;18.37;100.00
70027;BME280;57506;50.092;15.804;2023-06-10T06:34:53;98961.81;;;18.34;100.00
70027;BME280;57506;50.092;15.804;2023-06-10T06:37:23;98957.22;;;18.56;100.00
70027;BME280;57506;50.092;15.804;2023-06-10T06:39:50;98971.63;;;18.51;100.00
70027;BME280;57506;50.092;15.804;2023-06-10T06:42:16;98970.75;;;18.63;100.00
70027;BME280;57506;50.092;15.804;2023-06-10T06:44:42;98973.84;;;18.71;100.00
70027;BME280;57506;50.092;15.804;2023-06-10T06:47:07;98971.91;;;18.67;100.00
70027;BME280;57506;50.092;15.804;2023-06-10T06:49:33;98987.31;;;18.78;100.00
70027;BME280;57506;50.092;15.804;2023-06-10T06:51:58;98985.22;;;18.85;100.00
70027;BME280;57506;50.092;15.804;2023-06-10T06:54:24;98994.81;;;18.87;100.00
70027;BME280;57506;50.092;15.804;2023-06-10T06:56:50;98992.88;;;18.83;100.00
70027;BME280;57506;50.092;15.804;2023-06-10T06:59:15;99001.06;;;18.83;100.00
70027;BME280;57506;50.092;15.804;2023-06-10T07:01:44;98989.22;;;18.77;100.00
70027;BME280;57506;50.092;15.804;2023-06-10T07:04:10;98996.03;;;18.75;100.00
70027;BME280;57506;50.092;15.804;2023-06-10T07:06:35;99006.81;;;18.65;100.00
70027;BME280;57506;50.092;15.804;2023-06-10T07:09:01;99010.59;;;18.64;100.00
70027;BME280;57506;50.092;15.804;2023-06-10T07:11:27;99005.41;;;18.62;100.00
70027;BME280;57506;50.092;15.804;2023-06-10T07:13:52;99016.06;;;18.64;100.00
70027;BME280;57506;50.092;15.804;2023-06-10T07:16:18;99007.38;;;18.67;100.00
70027;BME280;57506;50.092;15.804;2023-06-10T07:18:46;99011.31;;;18.76;100.00
70027;BME280;57506;50.092;15.804;2023-06-10T07:21:11;99013.19;;;18.92;100.00
70027;BME280;57506;50.092;15.804;2023-06-10T07:23:37;99019.94;;;19.06;100.00
70027;BME280;57506;50.092;15.804;2023-06-10T07:26:02;99017.06;;;18.96;100.00
70027;BME280;57506;50.092;15.804;2023-06-10T07:28:28;99015.47;;;19.00;100.00
70027;BME280;57506;50.092;15.804;2023-06-10T07:30:54;99018.94;;;19.12;100.00
70027;BME280;57506;50.092;15.804;2023-06-10T07:33:20;99019.03;;;19.22;100.00
70027;BME280;57506;50.092;15.804;2023-06-10T07:35:45;99023.50;;;19.29;100.00
70027;BME280;57506;50.092;15.804;2023-06-10T07:38:11;99019.97;;;19.33;100.00
70027;BME280;57506;50.092;15.804;2023-06-10T07:40:37;99025.84;;;19.42;100.00
70027;BME280;57506;50.092;15.804;2023-06-10T07:43:02;99031.88;;;19.44;100.00
70027;BME280;57506;50.092;15.804;2023-06-10T07:45:28;99030.94;;;19.55;100.00
70027;BME280;57506;50.092;15.804;2023-06-10T07:47:54;99030.78;;;19.67;100.00
70027;BME280;57506;50.092;15.804;2023-06-10T07:50:20;99028.78;;;19.57;100.00
70027;BME280;57506;50.092;15.804;2023-06-10T07:52:46;99033.03;;;19.70;100.00
70027;BME280;57506;50.092;15.804;2023-06-10T07:55:11;99029.00;;;19.77;100.00
70027;BME280;57506;50.092;15.804;2023-06-10T07:57:37;99027.28;;;19.98;100.00
70027;BME280;57506;50.092;15.804;2023-06-10T08:00:05;99025.44;;;20.04;100.00
70027;BME280;57506;50.092;15.804;2023-06-10T08:02:31;99035.22;;;20.26;100.00
70027;BME280;57506;50.092;15.804;2023-06-10T08:04:57;99034.91;;;20.23;100.00
70027;BME280;57506;50.092;15.804;2023-06-10T08:07:22;99037.38;;;20.51;100.00
70027;BME280;57506;50.092;15.804;2023-06-10T08:09:48;99033.91;;;20.66;100.00
70027;BME280;57506;50.092;15.804;2023-06-10T08:12:14;99037.63;;;20.50;100.00
70027;BME280;57506;50.092;15.804;2023-06-10T08:14:40;99032.47;;;20.53;100.00
70027;BME280;57506;50.092;15.804;2023-06-10T08:17:06;99037.28;;;20.78;100.00
70027;BME280;57506;50.092;15.804;2023-06-10T08:19:31;99035.75;;;20.98;100.00
70027;BME280;57506;50.092;15.804;2023-06-10T08:21:57;99042.28;;;21.34;100.00
70027;BME280;57506;50.092;15.804;2023-06-10T08:24:23;99044.59;;;21.67;100.00
70027;BME280;57506;50.092;15.804;2023-06-10T08:26:48;99044.84;;;21.60;100.00
70027;BME280;57506;50.092;15.804;2023-06-10T08:29:14;99043.47;;;21.63;100.00
70027;BME280;57506;50.092;15.804;2023-06-10T08:31:43;99053.94;;;21.76;100.00
70027;BME280;57506;50.092;15.804;2023-06-10T08:34:09;99048.00;;;22.10;100.00
70027;BME280;57506;50.092;15.804;2023-06-10T08:36:35;99054.88;;;22.02;100.00
70027;BME280;57506;50.092;15.804;2023-06-10T08:39:01;99059.56;;;22.17;100.00
70027;BME280;57506;50.092;15.804;2023-06-10T08:41:28;99049.69;;;22.16;100.00
70027;BME280;57506;50.092;15.804;2023-06-10T08:44:17;99061.22;;;22.28;100.00
70027;BME280;57506;50.092;15.804;2023-06-10T08:46:46;99059.03;;;22.50;100.00
70027;BME280;57506;50.092;15.804;2023-06-10T08:49:17;99050.78;;;22.15;99.14
70027;BME280;57506;50.092;15.804;2023-06-10T08:51:48;99061.22;;;22.58;100.00
70027;BME280;57506;50.092;15.804;2023-06-10T08:54:17;99052.44;;;22.46;99.98
70027;BME280;57506;50.092;15.804;2023-06-10T08:56:49;99046.94;;;22.97;99.23
70027;BME280;57506;50.092;15.804;2023-06-10T08:59:15;99052.16;;;22.63;95.09
70027;BME280;57506;50.092;15.804;2023-06-10T09:01:43;99053.00;;;22.79;93.02
70027;BME280;57506;50.092;15.804;2023-06-10T09:04:09;99059.31;;;22.79;92.91
70027;BME280;57506;50.092;15.804;2023-06-10T09:06:35;99061.53;;;22.87;93.61
70027;BME280;57506;50.092;15.804;2023-06-10T09:09:02;99066.44;;;22.90;94.00
70027;BME280;57506;50.092;15.804;2023-06-10T09:11:29;99068.09;;;22.91;93.92
70027;BME280;57506;50.092;15.804;2023-06-10T09:13:54;99074.69;;;22.65;89.57
70027;BME280;57506;50.092;15.804;2023-06-10T09:16:20;99071.13;;;22.69;90.79
70027;BME280;57506;50.092;15.804;2023-06-10T09:18:46;99064.00;;;22.53;90.82
70027;BME280;57506;50.092;15.804;2023-06-10T09:21:11;99066.72;;;22.53;89.48
70027;BME280;57506;50.092;15.804;2023-06-10T09:23:37;99057.09;;;22.76;89.81
70027;BME280;57506;50.092;15.804;2023-06-10T09:26:08;99056.00;;;22.62;88.93
70027;BME280;57506;50.092;15.804;2023-06-10T09:28:36;99062.78;;;23.30;88.04
70027;BME280;57506;50.092;15.804;2023-06-10T09:31:03;99064.44;;;23.31;84.83
70027;BME280;57506;50.092;15.804;2023-06-10T09:33:31;99064.34;;;23.62;84.50
70027;BME280;57506;50.092;15.804;2023-06-10T09:35:56;99061.97;;;23.94;85.03
70027;BME280;57506;50.092;15.804;2023-06-10T09:38:30;99065.06;;;23.83;81.21
70027;BME280;57506;50.092;15.804;2023-06-10T09:40:57;99060.31;;;23.93;81.93
70027;BME280;57506;50.092;15.804;2023-06-10T09:43:22;99054.06;;;24.27;79.55
70027;BME280;57506;50.092;15.804;2023-06-10T09:45:51;99055.72;;;24.28;78.44
70027;BME280;57506;50.092;15.804;2023-06-10T09:48:21;99057.47;;;24.08;77.76
70027;BME280;57506;50.092;15.804;2023-06-10T09:50:48;99057.09;;;23.81;78.43
70027;BME280;57506;50.092;15.804;2023-06-10T09:53:14;99055.19;;;24.21;75.55
70027;BME280;57506;50.092;15.804;2023-06-10T09:55:43;99061.31;;;24.07;76.13
70027;BME280;57506;50.092;15.804;2023-06-10T09:58:09;99051.88;;;24.29;75.23
70027;BME280;57506;50.092;15.804;2023-06-10T10:00:35;99060.38;;;24.32;74.29
70027;BME280;57506;50.092;15.804;2023-06-10T10:03:02;99063.84;;;24.48;75.64
70027;BME280;57506;50.092;15.804;2023-06-10T10:05:27;99050.13;;;23.94;75.58
70027;BME280;57506;50.092;15.804;2023-06-10T10:07:53;99052.59;;;23.95;76.80
70027;BME280;57506;50.092;15.804;2023-06-10T10:10:21;99059.06;;;23.70;74.91
70027;BME280;57506;50.092;15.804;2023-06-10T10:12:48;99056.06;;;23.67;76.18
70027;BME280;57506;50.092;15.804;2023-06-10T10:15:17;99057.09;;;23.81;77.61
70027;BME280;57506;50.092;15.804;2023-06-10T10:17:49;99062.03;;;23.84;77.51
70027;BME280;57506;50.092;15.804;2023-06-10T10:20:20;99052.41;;;24.21;73.68
70027;BME280;57506;50.092;15.804;2023-06-10T10:22:46;99044.44;;;24.24;70.75
70027;BME280;57506;50.092;15.804;2023-06-10T10:25:40;99040.50;;;24.35;69.19
70027;BME280;57506;50.092;15.804;2023-06-10T10:28:10;99043.25;;;24.35;70.32
70027;BME280;57506;50.092;15.804;2023-06-10T10:31:03;99036.59;;;24.75;70.02
70027;BME280;57506;50.092;15.804;2023-06-10T10:34:25;99034.53;;;24.86;68.03
70027;BME280;57506;50.092;15.804;2023-06-10T10:36:22;99035.47;;;24.76;67.63
70027;BME280;57506;50.092;15.804;2023-06-10T10:38:48;99031.50;;;24.59;67.06
70027;BME280;57506;50.092;15.804;2023-06-10T10:41:15;99034.31;;;24.83;68.37
70027;BME280;57506;50.092;15.804;2023-06-10T10:43:43;99035.72;;;24.51;65.09
70027;BME280;57506;50.092;15.804;2023-06-10T10:46:16;99025.72;;;24.26;65.59
70027;BME280;57506;50.092;15.804;2023-06-10T10:48:43;99028.38;;;24.36;67.26
70027;BME280;57506;50.092;15.804;2023-06-10T10:51:10;99027.78;;;24.45;68.33
70027;BME280;57506;50.092;15.804;2023-06-10T10:53:39;99024.78;;;24.36;68.62
70027;BME280;57506;50.092;15.804;2023-06-10T10:56:05;99027.63;;;24.21;67.48
70027;BME280;57506;50.092;15.804;2023-06-10T10:58:33;99026.16;;;24.38;67.95
70027;BME280;57506;50.092;15.804;2023-06-10T11:00:58;99025.00;;;24.45;67.45
70027;BME280;57506;50.092;15.804;2023-06-10T11:03:28;99013.03;;;24.59;66.56
70027;BME280;57506;50.092;15.804;2023-06-10T11:05:58;99012.72;;;24.66;63.30
70027;BME280;57506;50.092;15.804;2023-06-10T11:10:58;99013.03;;;24.88;64.88
70027;BME280;57506;50.092;15.804;2023-06-10T11:13:25;99009.75;;;25.15;66.52
70027;BME280;57506;50.092;15.804;2023-06-10T11:15:52;99003.91;;;25.40;64.91
70027;BME280;57506;50.092;15.804;2023-06-10T11:28:40;98991.75;;;25.41;60.91
70027;BME280;57506;50.092;15.804;2023-06-10T11:31:05;98991.50;;;25.38;62.49
70027;BME280;57506;50.092;15.804;2023-06-10T11:33:32;98997.41;;;25.31;63.12
70027;BME280;57506;50.092;15.804;2023-06-10T11:35:58;99000.47;;;25.30;62.71
70027;BME280;57506;50.092;15.804;2023-06-10T11:38:24;99004.00;;;25.54;60.89
70027;BME280;57506;50.092;15.804;2023-06-10T11:40:50;98995.41;;;25.79;58.89
70027;BME280;57506;50.092;15.804;2023-06-10T11:43:17;99001.53;;;25.53;58.33
70027;BME280;57506;50.092;15.804;2023-06-10T11:45:43;98992.22;;;25.49;58.19
70027;BME280;57506;50.092;15.804;2023-06-10T11:48:09;98998.09;;;25.42;59.03
70027;BME280;57506;50.092;15.804;2023-06-10T11:50:36;98981.78;;;25.45;59.69
70027;BME280;57506;50.092;15.804;2023-06-10T11:53:02;98994.28;;;25.81;59.77
70027;BME280;57506;50.092;15.804;2023-06-10T11:55:49;98993.16;;;25.63;58.18
70027;BME280;57506;50.092;15.804;2023-06-10T11:58:17;98978.31;;;25.96;60.07
70027;BME280;57506;50.092;15.804;2023-06-10T12:00:54;98988.44;;;25.82;60.53
70027;BME280;57506;50.092;15.804;2023-06-10T12:03:21;98982.66;;;25.65;59.54
70027;BME280;57506;50.092;15.804;2023-06-10T12:06:05;98979.06;;;25.40;59.34
70027;BME280;57506;50.092;15.804;2023-06-10T12:08:31;98981.06;;;25.35;59.62
70027;BME280;57506;50.092;15.804;2023-06-10T12:10:57;98995.19;;;25.52;59.99
70027;BME280;57506;50.092;15.804;2023-06-10T12:13:27;98984.34;;;25.37;59.27
70027;BME280;57506;50.092;15.804;2023-06-10T12:15:53;98975.69;;;25.25;58.08
70027;BME280;57506;50.092;15.804;2023-06-10T12:18:20;98968.38;;;25.15;59.41
70027;BME280;57506;50.092;15.804;2023-06-10T12:20:46;98971.25;;;25.48;59.86
70027;BME280;57506;50.092;15.804;2023-06-10T12:23:12;98974.59;;;25.44;58.09
70027;BME280;57506;50.092;15.804;2023-06-10T12:25:38;98968.13;;;25.54;57.47
70027;BME280;57506;50.092;15.804;2023-06-10T12:28:05;98968.38;;;25.34;56.23
70027;BME280;57506;50.092;15.804;2023-06-10T12:30:32;98968.09;;;25.78;58.76
70027;BME280;57506;50.092;15.804;2023-06-10T12:32:58;98970.75;;;25.83;55.69
70027;BME280;57506;50.092;15.804;2023-06-10T12:35:26;98964.25;;;26.11;56.27
70027;BME280;57506;50.092;15.804;2023-06-10T12:38:00;98967.63;;;26.08;55.87
70027;BME280;57506;50.092;15.804;2023-06-10T12:40:27;98965.16;;;25.88;53.90
70027;BME280;57506;50.092;15.804;2023-06-10T12:42:54;98954.16;;;26.21;57.35
70027;BME280;57506;50.092;15.804;2023-06-10T12:45:31;98974.53;;;26.25;54.20
70027;BME280;57506;50.092;15.804;2023-06-10T12:50:31;98965.28;;;26.15;53.76
70027;BME280;57506;50.092;15.804;2023-06-10T12:52:57;98958.34;;;26.18;54.62
70027;BME280;57506;50.092;15.804;2023-06-10T12:55:22;98953.97;;;26.63;57.64
70027;BME280;57506;50.092;15.804;2023-06-10T12:57:51;98948.72;;;26.48;55.13
70027;BME280;57506;50.092;15.804;2023-06-10T13:00:18;98966.63;;;26.18;54.70